Time;durP1;ratioP1;P1;durP2;ratioP2;P2;SDS_P1;SDS_P2;PMS_P1;PMS_P2;Temp;Humidity;BMP_temperature;BMP_pressure;BME280_temperature;BME280_humidity;BME280_pressure;Samples;Min_cycle;Max_cycle;Signal;HPM_P1;HPM_P2
2023/04/01 00:02:17;;;;;;;6.68;2.15;;;;;;;9.05;100.00;98978.72;5026037;28;20123;-77
2023/04/01 00:04:43;;;;;;;13.75;3.30;;;;;;;9.03;100.00;98980.69;5038120;28;20033;-77
2023/04/01 00:07:08;;;;;;;8.75;2.17;;;;;;;9.04;100.00;98984.25;5024057;28;20120;-77
2023/04/01 00:09:34;;;;;;;11.77;2.65;;;;;;;9.04;100.00;98981.56;5035316;28;20032;-77
2023/04/01 00:12:00;;;;;;;6.65;2.50;;;;;;;9.03;100.00;98982.53;5035419;28;20090;-77
2023/04/01 00:14:25;;;;;;;11.90;2.97;;;;;;;9.03;100.00;98986.06;5042161;28;20033;-77
2023/04/01 00:16:52;;;;;;;6.05;1.95;;;;;;;9.04;100.00;98985.06;5029714;28;20029;-77
2023/04/01 00:19:17;;;;;;;9.25;2.53;;;;;;;9.04;100.00;98979.72;5042852;28;20066;-77
2023/04/01 00:21:43;;;;;;;12.30;2.60;;;;;;;9.03;100.00;98983.38;5044542;28;20084;-77
2023/04/01 00:24:08;;;;;;;11.07;2.60;;;;;;;9.03;100.00;98986.06;5040110;28;20112;-77
2023/04/01 00:26:33;;;;;;;6.38;2.30;;;;;;;9.04;100.00;98993.13;5038998;28;20200;-77
2023/04/01 00:28:59;;;;;;;11.95;3.10;;;;;;;9.04;100.00;98982.41;5031444;28;20081;-77
2023/04/01 00:31:24;;;;;;;8.05;2.63;;;;;;;9.04;100.00;98993.13;5032108;28;20025;-77
2023/04/01 00:33:51;;;;;;;10.18;2.80;;;;;;;9.03;100.00;98994.09;5032055;28;20116;-77
2023/04/01 00:36:21;;;;;;;9.45;2.15;;;;;;;9.04;100.00;99005.69;5035205;28;20059;-77
2023/04/01 00:38:47;;;;;;;8.65;2.45;;;;;;;9.04;100.00;98997.63;5034871;28;20034;-77
2023/04/01 00:41:14;;;;;;;11.05;2.53;;;;;;;9.04;100.00;98995.78;5028170;28;20500;-77
2023/04/01 00:43:44;;;;;;;9.73;2.83;;;;;;;9.03;100.00;98994.09;5036384;28;20025;-77
2023/04/01 00:46:10;;;;;;;10.45;3.03;;;;;;;9.02;100.00;99000.47;5039085;28;20151;-77
2023/04/01 00:48:39;;;;;;;10.00;3.10;;;;;;;9.02;100.00;98997.78;5038048;28;20128;-77
2023/04/01 00:51:09;;;;;;;8.27;3.07;;;;;;;9.03;100.00;99009.34;5045308;28;20029;-77
2023/04/01 00:53:39;;;;;;;7.90;3.13;;;;;;;9.02;100.00;99005.84;5043940;28;20053;-77
2023/04/01 00:56:14;;;;;;;10.27;2.83;;;;;;;9.02;100.00;99013.88;5035053;28;20055;-77
2023/04/01 00:58:44;;;;;;;10.02;2.67;;;;;;;9.01;100.00;99016.69;5043779;28;20469;-77
2023/04/01 01:01:10;;;;;;;9.77;3.00;;;;;;;9.02;100.00;99013.00;5026155;28;20025;-76
2023/04/01 01:03:36;;;;;;;7.97;2.72;;;;;;;9.01;100.00;99017.53;5022549;28;20604;-77
2023/04/01 01:06:04;;;;;;;10.15;3.08;;;;;;;9.03;100.00;99020.06;5036537;28;20092;-77
2023/04/01 01:08:52;;;;;;;10.07;2.92;;;;;;;9.02;100.00;99019.22;5027843;28;20079;-77
2023/04/01 01:11:28;;;;;;;10.82;3.33;;;;;;;9.01;100.00;99022.06;5026664;28;20104;-78
2023/04/01 01:14:14;;;;;;;8.95;3.03;;;;;;;9.02;100.00;99016.53;5043154;28;20074;-77
2023/04/01 01:16:46;;;;;;;10.40;3.22;;;;;;;9.02;100.00;99021.91;5035942;28;20149;-77
2023/04/01 01:19:31;;;;;;;9.00;3.40;;;;;;;9.01;100.00;99028.25;5040125;28;20115;-77
2023/04/01 01:22:18;;;;;;;7.63;2.83;;;;;;;9.02;100.00;99027.25;5025365;28;20513;-77
2023/04/01 01:24:55;;;;;;;9.70;3.25;;;;;;;9.02;100.00;99029.09;5041682;28;20069;-77
2023/04/01 01:27:22;;;;;;;10.77;3.88;;;;;;;9.02;100.00;99023.72;5041221;28;20120;-77
2023/04/01 01:30:17;;;;;;;12.30;4.10;;;;;;;9.03;100.00;99028.94;5023683;28;20505;-77
2023/04/01 01:32:59;;;;;;;11.82;3.80;;;;;;;9.03;100.00;99031.63;5028148;28;20029;-77
2023/04/01 01:35:43;;;;;;;12.52;3.97;;;;;;;9.03;100.00;99036.13;5040698;28;20035;-77
2023/04/01 01:38:14;;;;;;;12.85;4.70;;;;;;;9.01;100.00;99027.41;5027591;28;20025;-77
2023/04/01 01:40:42;;;;;;;13.48;4.75;;;;;;;9.00;100.00;99034.59;5042237;28;20028;-77
2023/04/01 01:43:12;;;;;;;15.90;5.63;;;;;;;9.00;100.00;99037.28;5038076;28;20029;-77
2023/04/01 01:45:44;;;;;;;15.95;5.85;;;;;;;9.01;100.00;99038.97;5041417;28;20479;-77
2023/04/01 01:48:10;;;;;;;16.35;5.70;;;;;;;9.02;100.00;99034.44;5031871;28;20033;-77
2023/04/01 01:50:37;;;;;;;15.55;5.60;;;;;;;8.99;100.00;99035.59;5019973;28;20068;-77
2023/04/01 01:53:05;;;;;;;16.27;5.55;;;;;;;8.99;100.00;99043.66;5021922;28;20465;-77
2023/04/01 01:55:33;;;;;;;16.38;5.85;;;;;;;9.00;100.00;99042.63;5044531;28;20155;-77
2023/04/01 01:58:04;;;;;;;15.38;5.53;;;;;;;8.99;100.00;99049.00;5029283;28;20033;-78
2023/04/01 02:00:30;;;;;;;14.40;5.32;;;;;;;8.99;100.00;99046.31;5023043;28;20477;-76
2023/04/01 02:02:58;;;;;;;17.92;6.35;;;;;;;9.00;100.00;99052.50;5030599;28;20137;-77
2023/04/01 02:05:26;;;;;;;16.73;6.07;;;;;;;8.99;100.00;99049.00;5036894;28;20121;-77
2023/04/01 02:08:01;;;;;;;15.80;5.50;;;;;;;8.98;100.00;99060.69;5034711;28;20026;-77
2023/04/01 02:10:28;;;;;;;17.20;6.07;;;;;;;8.97;100.00;99052.81;5033186;28;20101;-77
2023/04/01 02:12:59;;;;;;;17.88;6.65;;;;;;;8.97;100.00;99064.34;5023054;28;20025;-77
2023/04/01 02:15:27;;;;;;;19.77;7.35;;;;;;;8.97;100.00;99063.53;5038690;28;20473;-77
2023/04/01 02:17:54;;;;;;;20.13;8.07;;;;;;;8.97;100.00;99067.03;5037609;28;20045;-77
2023/04/01 02:20:24;;;;;;;20.27;8.05;;;;;;;8.98;100.00;99065.22;5039749;28;20031;-77
2023/04/01 02:22:53;;;;;;;25.38;8.38;;;;;;;8.96;100.00;99068.06;5035509;28;20054;-77
2023/04/01 02:25:25;;;;;;;20.80;8.40;;;;;;;8.96;100.00;99067.19;5019726;28;20029;-77
2023/04/01 02:27:51;;;;;;;19.27;7.88;;;;;;;8.94;100.00;99069.19;5041130;28;20519;-78
2023/04/01 02:30:17;;;;;;;21.13;8.00;;;;;;;8.92;100.00;99066.66;5026122;28;20048;-77
2023/04/01 02:32:45;;;;;;;20.90;8.40;;;;;;;8.90;100.00;99068.59;5034228;28;20136;-77
2023/04/01 02:35:15;;;;;;;21.48;8.00;;;;;;;8.92;100.00;99077.38;5038396;28;20030;-77
2023/04/01 02:37:42;;;;;;;24.33;9.55;;;;;;;8.90;100.00;99073.97;5042356;28;20408;-77
2023/04/01 02:40:10;;;;;;;21.77;9.95;;;;;;;8.87;100.00;99069.78;5030365;28;20391;-77
2023/04/01 02:42:35;;;;;;;22.55;9.00;;;;;;;8.87;100.00;99069.78;5022946;28;21204;-77
2023/04/01 02:45:01;;;;;;;23.67;9.93;;;;;;;8.89;100.00;99072.31;5031129;28;20108;-77
2023/04/01 02:47:27;;;;;;;21.02;10.10;;;;;;;8.87;100.00;99082.31;5043557;28;20113;-77
2023/04/01 02:49:57;;;;;;;22.98;9.50;;;;;;;8.88;100.00;99075.97;5037559;28;20029;-77
2023/04/01 02:52:24;;;;;;;24.13;10.55;;;;;;;8.86;100.00;99076.09;5034486;28;20108;-77
2023/04/01 02:54:49;;;;;;;23.33;10.40;;;;;;;8.84;100.00;99085.28;5035189;28;20689;-77
2023/04/01 02:57:15;;;;;;;24.27;10.82;;;;;;;8.84;100.00;99079.91;5041760;28;20021;-77
2023/04/01 02:59:40;;;;;;;21.80;10.25;;;;;;;8.81;100.00;99082.88;5034516;28;20049;-77
2023/04/01 03:02:06;;;;;;;22.75;11.00;;;;;;;8.80;100.00;99083.88;5027785;28;20914;-77
2023/04/01 03:04:32;;;;;;;22.70;10.63;;;;;;;8.80;100.00;99094.59;5023657;28;20021;-77
2023/04/01 03:06:58;;;;;;;23.75;9.45;;;;;;;8.79;100.00;99091.06;5027770;28;20025;-77
2023/04/01 03:09:26;;;;;;;23.88;10.15;;;;;;;8.80;100.00;99094.59;5029579;28;20064;-77
2023/04/01 03:11:51;;;;;;;22.05;9.27;;;;;;;8.81;100.00;99101.63;5026959;28;20022;-77
2023/04/01 03:14:17;;;;;;;21.65;9.27;;;;;;;8.80;100.00;99094.59;5034564;28;20370;-77
2023/04/01 03:16:42;;;;;;;22.65;9.65;;;;;;;8.80;100.00;99099.94;5025746;28;20037;-77
2023/04/01 03:19:07;;;;;;;22.73;10.52;;;;;;;8.79;100.00;99101.78;5032345;28;20056;-77
2023/04/01 03:21:33;;;;;;;23.63;9.80;;;;;;;8.79;100.00;99095.59;5032142;28;20497;-77
2023/04/01 03:23:58;;;;;;;21.15;8.57;;;;;;;8.77;100.00;99100.22;5027991;28;20108;-77
2023/04/01 03:26:24;;;;;;;21.75;9.32;;;;;;;8.78;100.00;99112.66;5034360;28;20108;-77
2023/04/01 03:28:49;;;;;;;22.85;9.55;;;;;;;8.74;100.00;99107.56;5028060;28;20025;-77
2023/04/01 03:31:15;;;;;;;23.08;9.43;;;;;;;8.76;100.00;99115.47;5035389;28;20045;-77
2023/04/01 03:33:41;;;;;;;20.13;8.15;;;;;;;8.75;100.00;99111.09;5031095;28;20522;-77
2023/04/01 03:36:07;;;;;;;20.98;8.20;;;;;;;8.77;100.00;99113.63;5029323;28;20081;-77
2023/04/01 03:38:33;;;;;;;21.27;8.93;;;;;;;8.76;100.00;99120.00;5035601;28;20024;-77
2023/04/01 03:40:59;;;;;;;20.13;8.25;;;;;;;8.76;100.00;99115.47;5030630;28;20039;-77
2023/04/01 03:43:26;;;;;;;23.38;8.95;;;;;;;8.75;100.00;99119.13;5020401;28;20393;-77
2023/04/01 03:45:51;;;;;;;20.10;8.20;;;;;;;8.73;100.00;99121.94;5025177;28;20036;-77
2023/04/01 03:48:17;;;;;;;20.60;7.95;;;;;;;8.73;100.00;99115.75;5035632;28;20025;-77
2023/04/01 03:50:44;;;;;;;18.50;7.05;;;;;;;8.72;100.00;99119.41;5040062;28;20075;-77
2023/04/01 03:53:09;;;;;;;19.65;6.78;;;;;;;8.72;100.00;99119.41;5027155;28;20021;-77
2023/04/01 03:55:36;;;;;;;19.80;7.28;;;;;;;8.70;100.00;99126.75;5034039;28;20121;-77
2023/04/01 03:58:02;;;;;;;17.80;6.57;;;;;;;8.71;100.00;99123.94;5024179;28;20146;-77
2023/04/01 04:00:28;;;;;;;18.27;6.40;;;;;;;8.71;100.00;99128.44;5025299;28;20492;-77
2023/04/01 04:02:56;;;;;;;19.50;6.32;;;;;;;8.71;100.00;99139.16;5023962;28;20068;-77
2023/04/01 04:05:22;;;;;;;17.98;6.88;;;;;;;8.69;100.00;99130.41;5032902;28;20044;-77
2023/04/01 04:07:47;;;;;;;17.02;6.03;;;;;;;8.70;100.00;99132.94;5035325;28;20092;-77
2023/04/01 04:10:13;;;;;;;18.35;6.28;;;;;;;8.69;100.00;99131.25;5020236;28;20021;-77
2023/04/01 04:12:40;;;;;;;17.85;6.50;;;;;;;8.70;100.00;99140.16;5033634;28;20112;-77
2023/04/01 04:15:06;;;;;;;17.77;5.90;;;;;;;8.69;100.00;99139.28;5020847;28;20411;-77
2023/04/01 04:17:31;;;;;;;18.73;6.75;;;;;;;8.68;100.00;99140.28;5032917;28;20033;-77
2023/04/01 04:19:56;;;;;;;17.67;5.95;;;;;;;8.67;100.00;99153.84;5025512;28;20033;-77
2023/04/01 04:22:21;;;;;;;17.90;6.05;;;;;;;8.66;100.00;99152.13;5037982;28;20049;-77
2023/04/01 04:24:47;;;;;;;17.90;6.00;;;;;;;8.66;100.00;99157.50;5028538;28;20037;-77
2023/04/01 04:27:12;;;;;;;15.55;5.47;;;;;;;8.66;100.00;99154.81;5039737;28;20108;-77
2023/04/01 04:29:37;;;;;;;18.10;5.65;;;;;;;8.67;100.00;99154.66;5034149;28;20456;-77
2023/04/01 04:32:03;;;;;;;14.15;5.10;;;;;;;8.65;100.00;99156.63;5036521;28;20042;-77
2023/04/01 04:34:28;;;;;;;16.50;5.55;;;;;;;8.65;100.00;99164.66;5037725;28;20056;-77
2023/04/01 04:36:53;;;;;;;15.23;5.18;;;;;;;8.64;100.00;99165.66;5033682;28;20033;-77
2023/04/01 04:39:19;;;;;;;11.32;4.20;;;;;;;8.62;100.00;99159.59;5026849;28;20026;-77
2023/04/01 04:41:44;;;;;;;14.93;4.60;;;;;;;8.60;100.00;99169.59;5036662;28;20096;-77
2023/04/01 04:44:09;;;;;;;8.82;3.45;;;;;;;8.57;100.00;99164.53;5035947;28;20052;-77
2023/04/01 04:46:36;;;;;;;12.20;3.88;;;;;;;8.54;100.00;99172.84;5038257;28;20395;-78
2023/04/01 04:49:02;;;;;;;11.70;4.07;;;;;;;8.54;100.00;99172.84;5026560;28;20111;-77
2023/04/01 04:51:27;;;;;;;13.18;4.47;;;;;;;8.52;100.00;99174.81;5041450;28;20029;-77
2023/04/01 04:53:52;;;;;;;13.15;4.07;;;;;;;8.50;100.00;99171.44;5039322;28;20026;-77
2023/04/01 04:56:20;;;;;;;13.10;4.45;;;;;;;8.49;100.00;99180.44;5038079;28;20029;-77
2023/04/01 04:58:45;;;;;;;11.90;4.07;;;;;;;8.48;100.00;99184.13;5027992;28;20372;-77
2023/04/01 05:01:13;;;;;;;11.45;4.15;;;;;;;8.47;100.00;99196.66;5027956;28;20090;-77
2023/04/01 05:03:40;;;;;;;12.90;4.18;;;;;;;8.46;100.00;99194.13;5036756;28;20024;-77
2023/04/01 05:06:07;;;;;;;14.18;4.38;;;;;;;8.46;100.00;99207.50;5041593;28;20056;-77
2023/04/01 05:08:33;;;;;;;14.25;4.25;;;;;;;8.45;100.00;99203.13;5041917;28;20030;-77
2023/04/01 05:10:59;;;;;;;13.43;3.80;;;;;;;8.46;100.00;99199.47;5021496;28;20033;-77
2023/04/01 05:13:25;;;;;;;11.20;3.42;;;;;;;8.46;100.00;99205.66;5026766;28;20021;-77
2023/04/01 05:15:50;;;;;;;9.63;3.38;;;;;;;8.43;100.00;99205.06;5040358;28;21201;-77
2023/04/01 05:18:16;;;;;;;9.98;3.30;;;;;;;8.42;100.00;99209.59;5046124;28;20025;-77
2023/04/01 05:20:50;;;;;;;13.15;3.53;;;;;;;8.44;100.00;99212.13;5037393;28;20508;-77
2023/04/01 05:23:16;;;;;;;13.15;3.53;;;;;;;8.42;100.00;99209.59;5028758;28;20039;-77
2023/04/01 05:25:41;;;;;;;9.18;3.00;;;;;;;8.40;100.00;99215.09;5046090;28;20029;-77
2023/04/01 05:28:06;;;;;;;17.10;3.63;;;;;;;8.42;100.00;99228.34;5038982;28;20048;-77
2023/04/01 05:30:32;;;;;;;10.90;3.53;;;;;;;8.43;100.00;99223.81;5040182;28;20026;-77
2023/04/01 05:32:57;;;;;;;10.05;3.00;;;;;;;8.42;100.00;99236.38;5042177;28;20108;-77
2023/04/01 05:35:23;;;;;;;10.95;3.60;;;;;;;8.40;100.00;99236.50;5042693;28;20033;-77
2023/04/01 05:37:49;;;;;;;14.05;3.75;;;;;;;8.40;100.00;99238.31;5041377;28;20022;-77
2023/04/01 05:40:14;;;;;;;9.48;3.40;;;;;;;8.40;100.00;99244.53;5032867;28;20404;-77
2023/04/01 05:42:39;;;;;;;10.98;3.67;;;;;;;8.41;100.00;99253.41;5031203;28;20481;-77
2023/04/01 05:45:05;;;;;;;11.27;3.42;;;;;;;8.42;100.00;99252.44;5019315;28;20115;-77
2023/04/01 05:47:31;;;;;;;11.13;3.97;;;;;;;8.43;100.00;99248.75;5030257;28;20097;-77
2023/04/01 05:49:56;;;;;;;10.57;4.10;;;;;;;8.42;100.00;99257.78;5039088;28;20082;-77
2023/04/01 05:52:21;;;;;;;15.20;4.45;;;;;;;8.43;100.00;99263.97;5023322;28;20087;-77
2023/04/01 05:54:47;;;;;;;14.43;4.63;;;;;;;8.44;100.00;99271.91;5039042;28;20017;-78
2023/04/01 05:57:12;;;;;;;13.90;4.25;;;;;;;8.44;100.00;99266.53;5035579;28;20129;-77
2023/04/01 05:59:38;;;;;;;13.85;4.63;;;;;;;8.44;100.00;99268.34;5041065;28;20021;-77
2023/04/01 06:02:03;;;;;;;17.00;4.85;;;;;;;8.45;100.00;99267.38;5021546;28;20564;-77
2023/04/01 06:04:36;;;;;;;17.23;4.95;;;;;;;8.43;100.00;99280.88;5026947;28;20044;-77
2023/04/01 06:07:10;;;;;;;15.00;4.82;;;;;;;8.45;100.00;99287.00;5033710;28;20025;-77
2023/04/01 06:09:36;;;;;;;17.27;5.35;;;;;;;8.44;100.00;99287.97;5035705;28;20025;-77
2023/04/01 06:12:07;;;;;;;17.30;5.00;;;;;;;8.46;100.00;99296.69;5032707;28;20047;-77
2023/04/01 06:14:57;;;;;;;12.50;4.35;;;;;;;8.46;100.00;99303.88;5032354;28;20414;-77
2023/04/01 06:17:44;;;;;;;16.67;4.72;;;;;;;8.48;100.00;99307.28;5017888;28;20025;-77
2023/04/01 06:20:18;;;;;;;15.02;4.97;;;;;;;8.49;100.00;99308.97;5037752;28;20040;-77
2023/04/01 06:23:04;;;;;;;15.95;4.95;;;;;;;8.51;100.00;99309.69;5038716;28;20444;-77
2023/04/01 06:26:07;;;;;;;14.77;5.18;;;;;;;8.50;100.00;99319.53;5029577;28;20037;-77
2023/04/01 06:29:03;;;;;;;15.10;4.93;;;;;;;8.51;100.00;99321.25;5031231;28;20041;-77
2023/04/01 06:32:12;;;;;;;17.40;5.78;;;;;;;8.54;100.00;99326.31;5042949;28;20016;-77
2023/04/01 06:34:48;;;;;;;18.10;5.80;;;;;;;8.53;100.00;99327.28;5021156;28;20033;-77
2023/04/01 06:37:49;;;;;;;18.00;5.75;;;;;;;8.54;100.00;99338.88;5021103;28;20034;-77
2023/04/01 06:40:42;;;;;;;18.67;6.13;;;;;;;8.57;100.00;99326.03;5010608;28;20086;-77
2023/04/01 06:43:24;;;;;;;16.17;5.82;;;;;;;8.59;100.00;99333.09;5012275;28;20029;-77
2023/04/01 06:45:53;;;;;;;19.70;7.43;;;;;;;8.60;100.00;99338.31;5020306;28;20405;-77
2023/04/01 06:48:23;;;;;;;20.02;7.47;;;;;;;8.60;100.00;99338.31;5015030;28;20033;-77
2023/04/01 06:51:04;;;;;;;19.00;7.65;;;;;;;8.62;100.00;99349.72;5017020;28;20029;-77
2023/04/01 06:53:54;;;;;;;19.60;7.75;;;;;;;8.65;100.00;99353.97;5029062;28;20124;-77
2023/04/01 06:56:24;;;;;;;21.80;8.07;;;;;;;8.67;100.00;99355.53;5022277;28;20032;-77
2023/04/01 06:58:58;;;;;;;21.48;8.98;;;;;;;8.70;100.00;99363.28;5011692;28;20033;-77
2023/04/01 07:01:34;;;;;;;21.65;10.07;;;;;;;8.70;100.00;99365.13;5014458;28;20086;-77
2023/04/01 07:04:05;;;;;;;21.45;8.85;;;;;;;8.75;100.00;99368.22;5013107;28;20116;-77
2023/04/01 07:06:48;;;;;;;22.35;10.45;;;;;;;8.79;100.00;99366.16;5041742;28;20040;-77
2023/04/01 07:09:19;;;;;;;25.33;10.80;;;;;;;8.81;100.00;99373.03;5022495;28;20021;-77
2023/04/01 07:11:45;;;;;;;21.05;9.75;;;;;;;8.81;100.00;99370.34;5028907;28;20037;-77
2023/04/01 07:14:10;;;;;;;24.05;10.98;;;;;;;8.85;100.00;99373.63;5025243;28;20025;-77
2023/04/01 07:16:49;;;;;;;23.88;10.60;;;;;;;8.88;100.00;99376.03;5029117;28;20477;-77
2023/04/01 07:19:25;;;;;;;25.33;12.18;;;;;;;8.92;100.00;99383.63;5027723;28;20108;-77
2023/04/01 07:22:01;;;;;;;25.92;12.65;;;;;;;8.95;100.00;99389.72;5047897;28;20052;-77
2023/04/01 07:24:34;;;;;;;25.23;12.43;;;;;;;8.97;100.00;99385.06;5033387;28;20040;-77
2023/04/01 07:26:59;;;;;;;24.30;12.30;;;;;;;8.98;100.00;99390.28;5021983;28;20457;-77
2023/04/01 07:29:26;;;;;;;27.58;14.52;;;;;;;9.00;100.00;99392.81;5020367;28;20039;-77
2023/04/01 07:32:06;;;;;;;25.75;13.93;;;;;;;8.99;100.00;99397.34;5030685;28;20179;-77
2023/04/01 07:34:38;;;;;;;26.70;14.70;;;;;;;9.02;100.00;99405.09;5034342;28;20770;-77
2023/04/01 07:37:15;;;;;;;27.00;13.60;;;;;;;9.04;100.00;99400.44;5029238;28;20124;-77
2023/04/01 07:40:05;;;;;;;28.77;13.57;;;;;;;9.07;100.00;99415.41;5035916;28;20492;-77
2023/04/01 07:43:00;;;;;;;25.77;14.10;;;;;;;9.09;100.00;99419.66;5037287;28;20036;-77
2023/04/01 07:45:46;;;;;;;27.17;15.10;;;;;;;9.11;100.00;99419.50;5025327;28;20025;-77
2023/04/01 07:48:38;;;;;;;25.88;14.43;;;;;;;9.09;100.00;99422.34;5039871;28;20026;-77
2023/04/01 07:51:15;;;;;;;26.15;14.57;;;;;;;9.09;100.00;99432.19;5031700;28;20036;-77
2023/04/01 07:53:57;;;;;;;29.98;15.18;;;;;;;9.09;100.00;99433.06;5037976;28;20017;-77
2023/04/01 07:56:41;;;;;;;28.30;14.85;;;;;;;9.10;100.00;99433.88;5036854;28;20374;-78
2023/04/01 07:59:29;;;;;;;26.13;13.68;;;;;;;9.15;100.00;99438.84;5030518;28;20250;-77
2023/04/01 08:02:28;;;;;;;25.63;13.63;;;;;;;9.13;100.00;99447.00;5036302;28;20520;-77
2023/04/01 08:05:00;;;;;;;25.20;13.20;;;;;;;9.12;100.00;99444.47;5022673;28;21200;-77
2023/04/01 08:07:27;;;;;;;29.17;13.85;;;;;;;9.14;100.00;99450.56;5018134;28;20060;-76
2023/04/01 08:10:09;;;;;;;27.63;15.20;;;;;;;9.19;100.00;99459.84;5024520;28;20131;-77
2023/04/01 08:12:55;;;;;;;28.88;14.25;;;;;;;9.28;100.00;99460.84;5022860;28;20064;-77
2023/04/01 08:15:23;;;;;;;29.42;13.38;;;;;;;9.34;100.00;99462.13;5019890;28;20373;-77
2023/04/01 08:18:15;;;;;;;29.45;14.45;;;;;;;9.40;100.00;99461.59;5020800;28;20035;-76
2023/04/01 08:20:48;;;;;;;27.65;14.73;;;;;;;9.44;100.00;99468.38;5017159;28;20045;-76
2023/04/01 08:23:21;;;;;;;29.27;16.55;;;;;;;9.50;100.00;99477.69;5022820;28;20112;-76
2023/04/01 08:26:10;;;;;;;25.45;14.48;;;;;;;9.53;100.00;99475.59;5026065;28;20037;-77
2023/04/01 08:28:44;;;;;;;29.90;16.10;;;;;;;9.57;100.00;99484.19;5028519;28;20482;-76
2023/04/01 08:31:24;;;;;;;29.90;15.93;;;;;;;9.58;100.00;99488.59;5024045;28;20037;-76
2023/04/01 08:33:53;;;;;;;30.85;15.15;;;;;;;9.57;100.00;99494.94;5025650;28;20044;-76
2023/04/01 08:36:24;;;;;;;27.90;15.25;;;;;;;9.58;100.00;99486.75;5026670;28;20061;-76
2023/04/01 08:39:04;;;;;;;32.65;15.23;;;;;;;9.58;100.00;99491.25;5026194;28;20040;-76
2023/04/01 08:41:45;;;;;;;26.13;13.20;;;;;;;9.57;100.00;99490.41;5023239;28;20057;-76
2023/04/01 08:44:21;;;;;;;24.52;12.95;;;;;;;9.60;100.00;99508.06;5025370;28;20068;-76
2023/04/01 08:47:12;;;;;;;28.17;13.48;;;;;;;9.60;100.00;99494.66;5026110;28;20083;-76
2023/04/01 08:49:47;;;;;;;25.45;13.88;;;;;;;9.61;100.00;99515.97;5024515;28;20413;-76
2023/04/01 08:52:36;;;;;;;26.05;12.75;;;;;;;9.65;100.00;99507.63;5023638;28;20029;-76
2023/04/01 08:55:23;;;;;;;25.17;13.07;;;;;;;9.67;100.00;99522.59;5026944;28;20029;-76
2023/04/01 08:57:51;;;;;;;31.25;13.55;;;;;;;9.72;100.00;99523.06;5023810;28;20032;-76
2023/04/01 09:00:22;;;;;;;26.30;14.05;;;;;;;9.80;100.00;99520.50;5023639;28;20084;-76
2023/04/01 09:03:15;;;;;;;29.63;13.93;;;;;;;9.82;100.00;99523.03;5022677;28;20048;-76
2023/04/01 09:05:54;;;;;;;27.10;13.43;;;;;;;9.85;100.00;99525.44;5023339;28;20033;-76
2023/04/01 09:08:59;;;;;;;24.33;11.85;;;;;;;9.91;100.00;99540.13;5023054;28;20059;-77
2023/04/01 09:11:59;;;;;;;26.70;10.80;;;;;;;9.95;100.00;99541.56;5024668;28;20164;-76
2023/04/01 09:14:57;;;;;;;25.55;11.38;;;;;;;9.98;100.00;99538.59;5020552;28;20148;-76
2023/04/01 09:17:32;;;;;;;23.02;11.15;;;;;;;10.03;100.00;99548.88;5024337;28;20163;-76
2023/04/01 09:20:25;;;;;;;23.02;10.75;;;;;;;10.02;100.00;99558.78;5023415;28;20595;-76
2023/04/01 09:23:12;;;;;;;25.80;10.57;;;;;;;10.00;100.00;99552.72;5025769;28;20096;-77
2023/04/01 09:26:15;;;;;;;23.80;9.90;;;;;;;9.99;100.00;99559.06;5022049;28;20036;-76
2023/04/01 09:28:46;;;;;;;21.92;9.93;;;;;;;9.99;100.00;99563.59;5022677;28;20032;-76
2023/04/01 09:31:30;;;;;;;22.33;10.25;;;;;;;9.94;100.00;99564.00;5030321;28;20036;-77
2023/04/01 09:34:07;;;;;;;22.25;10.20;;;;;;;9.94;100.00;99564.00;5023350;28;20120;-77
2023/04/01 09:36:39;;;;;;;21.83;10.35;;;;;;;9.94;100.00;99570.25;5021968;28;20029;-77
2023/04/01 09:39:36;;;;;;;19.85;8.23;;;;;;;9.92;100.00;99568.69;5019672;28;20029;-77
2023/04/01 09:42:37;;;;;;;21.85;8.88;;;;;;;9.89;100.00;99574.31;5025427;28;20521;-77
2023/04/01 09:45:21;;;;;;;20.10;8.25;;;;;;;9.84;100.00;99569.38;5021580;28;20412;-76
2023/04/01 09:48:08;;;;;;;19.27;8.18;;;;;;;9.81;100.00;99572.34;5023017;28;20452;-76
2023/04/01 09:50:50;;;;;;;20.83;8.20;;;;;;;9.82;100.00;99578.56;5021483;28;20069;-76
2023/04/01 09:53:29;;;;;;;18.13;7.50;;;;;;;9.85;100.00;99589.00;5020213;28;20021;-76
2023/04/01 09:56:14;;;;;;;22.02;9.07;;;;;;;9.86;100.00;99591.53;5023024;28;20469;-77
2023/04/01 09:59:13;;;;;;;22.70;8.52;;;;;;;9.89;100.00;99590.44;5024797;28;20021;-76
2023/04/01 10:01:56;;;;;;;20.98;8.38;;;;;;;9.87;100.00;99597.75;5024305;28;20033;-76
2023/04/01 10:04:24;;;;;;;20.48;7.93;;;;;;;9.85;100.00;99591.69;5026334;28;20456;-77
2023/04/01 10:07:30;;;;;;;20.60;8.45;;;;;;;9.88;100.00;99597.63;5039386;28;20045;-77
2023/04/01 10:10:46;;;;;;;19.42;9.02;;;;;;;9.91;100.00;99593.81;5039772;28;20579;-77
2023/04/01 10:13:23;;;;;;;20.15;9.00;;;;;;;9.86;100.00;99609.50;4983285;28;20514;-77
2023/04/01 10:16:03;;;;;;;21.10;10.02;;;;;;;9.82;100.00;99608.06;4973881;28;20518;-77
2023/04/01 10:18:51;;;;;;;19.75;8.75;;;;;;;9.80;100.00;99603.69;4989563;28;20496;-77
2023/04/01 10:21:47;;;;;;;21.23;9.07;;;;;;;9.75;100.00;99615.81;4973542;28;20046;-77
2023/04/01 10:24:28;;;;;;;22.65;10.10;;;;;;;9.74;100.00;99614.97;4974022;28;20106;-77
2023/04/01 10:26:59;;;;;;;22.30;10.75;;;;;;;9.76;100.00;99622.88;4973921;28;20125;-77
2023/04/01 10:29:47;;;;;;;22.55;10.02;;;;;;;9.73;100.00;99621.31;4982221;28;20145;-77
2023/04/01 10:33:04;;;;;;;23.63;11.63;;;;;;;9.71;100.00;99625.97;4989389;28;20034;-77
2023/04/01 10:35:55;;;;;;;23.08;11.27;;;;;;;9.70;100.00;99618.91;4912536;29;20040;-77
2023/04/01 10:38:51;;;;;;;26.15;12.63;;;;;;;9.71;100.00;99628.66;4912509;29;20119;-77
2023/04/01 10:41:19;;;;;;;22.55;10.52;;;;;;;9.70;100.00;99632.31;4912180;29;20573;-77
2023/04/01 10:44:15;;;;;;;24.52;11.65;;;;;;;9.72;100.00;99634.88;4904543;29;20048;-76
2023/04/01 10:47:03;;;;;;;24.15;11.85;;;;;;;9.73;100.00;99634.72;4906501;29;20058;-76
2023/04/01 10:49:37;;;;;;;22.52;11.57;;;;;;;9.74;100.00;99632.91;4930467;29;20094;-76
2023/04/01 10:52:39;;;;;;;25.35;11.80;;;;;;;9.76;100.00;99639.81;4935045;29;20055;-77
2023/04/01 10:55:36;;;;;;;24.20;12.00;;;;;;;9.75;100.00;99643.50;4951145;28;20027;-76
2023/04/01 10:58:24;;;;;;;24.25;11.68;;;;;;;9.72;100.00;99640.22;4934377;29;20438;-77
2023/04/01 11:01:20;;;;;;;26.00;11.70;;;;;;;9.70;100.00;99645.75;4947677;28;20055;-76
2023/04/01 11:04:10;;;;;;;25.48;12.48;;;;;;;9.71;100.00;99655.50;4926961;29;20031;-76
2023/04/01 11:06:48;;;;;;;23.30;12.35;;;;;;;9.70;100.00;99642.22;4934380;29;20035;-76
2023/04/01 11:09:16;;;;;;;28.48;13.07;;;;;;;9.68;100.00;99657.59;4994802;28;20090;-76
2023/04/01 11:12:05;;;;;;;25.02;13.10;;;;;;;9.68;100.00;99653.09;5038114;28;20557;-77
2023/04/01 11:14:55;;;;;;;25.85;12.40;;;;;;;9.74;100.00;99651.69;5037772;28;20025;-76
2023/04/01 11:17:39;;;;;;;24.63;12.77;;;;;;;9.75;100.00;99651.56;5031501;28;20090;-76
2023/04/01 11:20:17;;;;;;;25.45;12.05;;;;;;;9.82;100.00;99657.22;5041230;28;20029;-76
2023/04/01 11:23:00;;;;;;;24.73;13.05;;;;;;;9.88;100.00;99661.19;5041140;28;20471;-76
2023/04/01 11:25:41;;;;;;;24.77;12.35;;;;;;;9.88;100.00;99664.72;5019670;28;20030;-76
2023/04/01 11:28:25;;;;;;;23.52;12.20;;;;;;;9.92;100.00;99671.50;5034220;28;20128;-76
2023/04/01 11:31:09;;;;;;;24.02;11.52;;;;;;;9.87;100.00;99673.75;5040022;28;20074;-76
2023/04/01 11:33:40;;;;;;;21.25;10.20;;;;;;;9.83;100.00;99677.69;5031033;28;20036;-76
2023/04/01 11:36:23;;;;;;;23.60;10.27;;;;;;;9.86;100.00;99673.91;5034721;28;20025;-76
2023/04/01 11:39:10;;;;;;;23.55;11.05;;;;;;;9.88;100.00;99686.19;5045836;28;20158;-76
2023/04/01 11:41:45;;;;;;;23.00;10.40;;;;;;;9.93;100.00;99677.75;5030950;28;20028;-76
2023/04/01 11:44:26;;;;;;;25.15;11.95;;;;;;;9.98;100.00;99686.22;5040853;28;20029;-76
2023/04/01 11:47:29;;;;;;;23.58;10.77;;;;;;;10.02;100.00;99692.16;5032609;28;20504;-76
2023/04/01 11:50:32;;;;;;;25.00;11.65;;;;;;;10.04;100.00;99695.56;5032917;28;20499;-76
2023/04/01 11:53:22;;;;;;;22.63;11.05;;;;;;;10.03;100.00;99693.84;5030997;28;20041;-77
2023/04/01 11:55:58;;;;;;;23.60;11.10;;;;;;;10.00;100.00;99702.19;5029894;28;20033;-77
2023/04/01 11:58:58;;;;;;;21.73;10.13;;;;;;;9.96;100.00;99698.94;5040638;28;20033;-77